Time;durP1;ratioP1;P1;durP2;ratioP2;P2;SDS_P1;SDS_P2;PMS_P1;PMS_P2;Temp;Humidity;BMP_temperature;BMP_pressure;BME280_temperature;BME280_humidity;BME280_pressure;Samples;Min_cycle;Max_cycle;Signal;HPM_P1;HPM_P2
2021/08/13 00:00:54;;;;;;;9.18;5.55;;;22.40;86.00;;;;;;5012940;28;20030;-80
2021/08/13 00:03:20;;;;;;;7.95;5.45;;;22.30;86.40;;;;;;5013627;28;20029;-80
2021/08/13 00:05:47;;;;;;;8.60;5.72;;;22.30;86.80;;;;;;5012731;28;20506;-80
2021/08/13 00:08:13;;;;;;;8.23;5.57;;;22.20;86.90;;;;;;5013364;28;20121;-80
2021/08/13 00:10:38;;;;;;;8.40;5.28;;;22.20;86.90;;;;;;5012265;28;20118;-88
2021/08/13 00:13:04;;;;;;;12.90;5.97;;;22.20;86.90;;;;;;5012886;28;20045;-80
2021/08/13 00:15:30;;;;;;;10.80;5.53;;;22.20;86.90;;;;;;5012973;28;20095;-80
2021/08/13 00:17:56;;;;;;;11.02;5.50;;;22.20;87.10;;;;;;5012190;28;20061;-80
2021/08/13 00:20:22;;;;;;;9.55;5.65;;;22.10;87.40;;;;;;5013111;28;20152;-80
2021/08/13 00:22:48;;;;;;;11.15;5.75;;;22.10;87.50;;;;;;5012412;28;20455;-80
2021/08/13 00:25:14;;;;;;;9.02;5.78;;;22.20;87.40;;;;;;5013138;28;20031;-80
2021/08/13 00:27:40;;;;;;;11.43;5.57;;;22.10;87.30;;;;;;5012371;28;20029;-81
2021/08/13 00:30:07;;;;;;;7.50;5.38;;;22.10;87.70;;;;;;5012720;28;20040;-80
2021/08/13 00:32:32;;;;;;;7.60;5.57;;;22.10;88.00;;;;;;5012814;28;20446;-80
2021/08/13 00:34:58;;;;;;;8.95;5.25;;;22.10;88.00;;;;;;5012568;28;20108;-80
2021/08/13 00:37:24;;;;;;;9.88;5.75;;;22.10;88.20;;;;;;5013758;28;20348;-80
2021/08/13 00:39:49;;;;;;;8.80;5.70;;;22.10;88.40;;;;;;5013372;28;20033;-80
2021/08/13 00:42:15;;;;;;;10.00;5.68;;;22.10;88.60;;;;;;5012763;28;20042;-80
2021/08/13 00:44:41;;;;;;;11.32;5.95;;;22.00;88.50;;;;;;5012337;28;20520;-83
2021/08/13 00:47:06;;;;;;;8.77;5.70;;;22.10;88.20;;;;;;5012810;28;20026;-80
2021/08/13 00:49:32;;;;;;;7.57;5.53;;;22.10;88.00;;;;;;5012646;28;20451;-80
2021/08/13 00:51:58;;;;;;;9.38;5.93;;;22.10;88.20;;;;;;5011934;28;20083;-80
2021/08/13 00:54:24;;;;;;;9.13;6.18;;;22.20;87.90;;;;;;5013567;28;20100;-80
2021/08/13 00:56:50;;;;;;;9.02;6.43;;;22.00;88.10;;;;;;5011890;28;20022;-80
2021/08/13 00:59:16;;;;;;;12.07;6.50;;;22.00;88.20;;;;;;5012473;28;20037;-79
2021/08/13 01:01:43;;;;;;;8.65;5.78;;;22.00;88.40;;;;;;5011891;28;20352;-80
2021/08/13 01:04:09;;;;;;;8.70;5.80;;;22.00;88.60;;;;;;5013651;28;20179;-79
2021/08/13 01:06:34;;;;;;;9.00;5.95;;;22.10;88.60;;;;;;5028795;28;20467;-80
2021/08/13 01:09:00;;;;;;;11.27;5.90;;;22.10;88.30;;;;;;5012025;28;20605;-80
2021/08/13 01:11:34;;;;;;;9.68;6.10;;;22.10;88.20;;;;;;5012543;28;20080;-80
2021/08/13 01:14:09;;;;;;;8.07;5.80;;;22.20;88.40;;;;;;5011939;28;20026;-81
2021/08/13 01:16:40;;;;;;;11.98;5.32;;;22.30;88.40;;;;;;5012177;28;20026;-80
2021/08/13 01:19:19;;;;;;;9.30;5.60;;;22.30;88.00;;;;;;5012882;28;20506;-81
2021/08/13 01:21:52;;;;;;;9.95;5.55;;;22.20;88.00;;;;;;5011887;28;20037;-81
2021/08/13 01:24:23;;;;;;;8.35;5.68;;;22.20;88.00;;;;;;5016238;28;20073;-80
2021/08/13 01:26:59;;;;;;;;;;;22.20;88.20;;;;;;5016121;28;20026;-81
2021/08/13 01:29:50;;;;;;;9.00;6.28;;;22.10;88.40;;;;;;5016319;28;19961;-81
2021/08/13 01:32:41;;;;;;;8.38;5.95;;;22.00;88.40;;;;;;5015235;28;20100;-81
2021/08/13 01:35:07;;;;;;;8.38;5.80;;;22.10;88.60;;;;;;5015789;28;20022;-81
2021/08/13 01:37:35;;;;;;;9.65;6.15;;;22.00;88.90;;;;;;5015952;28;20117;-81
2021/08/13 01:40:04;;;;;;;7.65;5.38;;;22.00;88.90;;;;;;5015358;28;20497;-81
2021/08/13 01:42:32;;;;;;;9.90;6.15;;;22.00;89.00;;;;;;5015658;28;20017;-81
2021/08/13 01:44:59;;;;;;;9.07;5.22;;;22.00;89.00;;;;;;5031805;28;20026;-80
2021/08/13 01:47:27;;;;;;;11.98;6.30;;;22.10;89.10;;;;;;5016490;28;20430;-80
2021/08/13 01:49:53;;;;;;;10.70;6.40;;;22.20;89.30;;;;;;5015160;28;20018;-80
2021/08/13 01:52:20;;;;;;;9.00;5.90;;;22.20;89.20;;;;;;5015540;28;20034;-80
2021/08/13 01:54:46;;;;;;;7.85;5.68;;;22.20;89.20;;;;;;5014990;28;20474;-81
2021/08/13 01:57:12;;;;;;;9.25;5.63;;;22.20;89.70;;;;;;5014984;28;20034;-80
2021/08/13 01:59:39;;;;;;;11.50;5.72;;;22.10;89.80;;;;;;5015592;28;20036;-80
2021/08/13 02:02:05;;;;;;;9.07;5.65;;;22.20;90.10;;;;;;5016065;28;20097;-80
2021/08/13 02:04:32;;;;;;;7.60;5.45;;;22.20;89.80;;;;;;5016200;28;20032;-81
2021/08/13 02:06:59;;;;;;;8.18;5.40;;;22.20;90.00;;;;;;5014905;28;20026;-81
2021/08/13 02:09:26;;;;;;;9.70;6.03;;;22.10;90.00;;;;;;5015248;28;20049;-81
2021/08/13 02:11:53;;;;;;;8.32;5.40;;;22.10;90.20;;;;;;5014538;28;20037;-81
2021/08/13 02:14:19;;;;;;;9.00;5.95;;;22.10;90.20;;;;;;5016298;28;20451;-79
2021/08/13 02:16:51;;;;;;;9.40;5.68;;;22.00;90.20;;;;;;5015203;28;20022;-88
2021/08/13 02:19:33;;;;;;;10.88;5.85;;;22.10;90.30;;;;;;5017063;28;20076;-81
2021/08/13 02:22:01;;;;;;;7.43;5.40;;;22.20;90.40;;;;;;5014994;28;20025;-81
2021/08/13 02:24:27;;;;;;;8.48;5.50;;;22.20;90.20;;;;;;5015920;28;20039;-80
2021/08/13 02:26:54;;;;;;;9.02;5.63;;;22.30;90.00;;;;;;5014632;28;20447;-81
2021/08/13 02:29:21;;;;;;;7.68;5.32;;;22.30;90.10;;;;;;5014734;28;20033;-81
2021/08/13 02:31:47;;;;;;;8.05;5.85;;;22.30;90.20;;;;;;5015452;28;20116;-88
2021/08/13 02:34:12;;;;;;;10.73;6.25;;;22.30;90.40;;;;;;5013901;28;20053;-80
2021/08/13 02:36:50;;;;;;;10.27;6.00;;;22.30;90.70;;;;;;5014952;28;20022;-81
2021/08/13 02:39:27;;;;;;;8.45;5.95;;;22.30;90.90;;;;;;5014727;28;20049;-81
2021/08/13 02:41:57;;;;;;;7.55;5.57;;;22.30;90.90;;;;;;5013517;28;20033;-79
2021/08/13 02:44:24;;;;;;;10.05;6.10;;;22.30;90.90;;;;;;5015459;28;20022;-78
2021/08/13 02:46:59;;;;;;;7.75;5.53;;;22.30;91.30;;;;;;5013761;28;20482;-79
2021/08/13 02:49:27;;;;;;;9.15;5.78;;;22.30;91.30;;;;;;5015315;28;20052;-79
2021/08/13 02:51:57;;;;;;;10.52;5.78;;;22.30;91.00;;;;;;5014814;28;20036;-79
2021/08/13 02:54:25;;;;;;;14.23;6.00;;;22.30;91.40;;;;;;5014039;28;20022;-80
2021/08/13 02:56:55;;;;;;;9.55;5.88;;;22.20;91.70;;;;;;5013789;28;20116;-82
2021/08/13 02:59:23;;;;;;;13.05;6.32;;;22.20;91.70;;;;;;5014098;28;20065;-80
2021/08/13 03:01:52;;;;;;;10.05;5.85;;;22.20;92.00;;;;;;5013853;28;20026;-82
2021/08/13 03:04:19;;;;;;;10.77;6.38;;;22.10;91.90;;;;;;5015204;28;20018;-81
2021/08/13 03:06:45;;;;;;;15.95;6.53;;;22.10;92.50;;;;;;5014150;28;20386;-80
2021/08/13 03:09:11;;;;;;;11.50;6.32;;;22.00;92.80;;;;;;5013178;28;20026;-79
2021/08/13 03:11:39;;;;;;;9.65;6.03;;;22.10;92.90;;;;;;5014915;28;20030;-80
2021/08/13 03:14:06;;;;;;;12.57;6.07;;;22.00;92.80;;;;;;5013422;28;20022;-79
2021/08/13 03:16:33;;;;;;;10.80;6.47;;;22.00;92.90;;;;;;5014220;28;20030;-79
2021/08/13 03:19:00;;;;;;;10.65;6.32;;;22.00;92.80;;;;;;5013511;28;20076;-80
2021/08/13 03:21:26;;;;;;;9.43;6.30;;;21.80;93.00;;;;;;5013800;28;20036;-79
2021/08/13 03:23:53;;;;;;;10.65;6.45;;;21.80;93.10;;;;;;5013226;28;20423;-80
2021/08/13 03:26:19;;;;;;;9.32;5.82;;;21.80;93.10;;;;;;5013513;28;20030;-80
2021/08/13 03:28:46;;;;;;;11.15;6.72;;;21.80;93.00;;;;;;5013867;28;20375;-80
2021/08/13 03:31:33;;;;;;;10.93;6.65;;;21.90;93.10;;;;;;5013585;28;20040;-80
2021/08/13 03:34:01;;;;;;;10.80;6.43;;;21.90;92.90;;;;;;5013366;28;20021;-80
2021/08/13 03:36:26;;;;;;;11.85;6.43;;;21.80;92.60;;;;;;5013934;28;20362;-80
2021/08/13 03:38:52;;;;;;;9.23;6.20;;;21.80;92.30;;;;;;5012899;28;20129;-81
2021/08/13 03:41:18;;;;;;;15.43;6.78;;;21.70;92.60;;;;;;5013680;28;20168;-80
2021/08/13 03:43:44;;;;;;;15.23;6.50;;;21.70;92.80;;;;;;5014620;28;20018;-80
2021/08/13 03:46:09;;;;;;;12.30;6.63;;;21.70;92.80;;;;;;5013027;28;20053;-80
2021/08/13 03:48:35;;;;;;;12.13;6.53;;;21.70;92.70;;;;;;5013431;28;20072;-79
2021/08/13 03:51:00;;;;;;;8.52;6.22;;;21.70;93.40;;;;;;5012984;28;20061;-81
2021/08/13 03:53:26;;;;;;;10.50;6.38;;;21.70;93.00;;;;;;5014812;28;20363;-81
2021/08/13 03:55:52;;;;;;;11.60;6.50;;;21.60;93.00;;;;;;5013200;28;20030;-85
2021/08/13 03:58:17;;;;;;;12.77;6.95;;;21.60;92.90;;;;;;5013414;28;20379;-80
2021/08/13 04:00:43;;;;;;;10.80;6.50;;;21.60;92.90;;;;;;5014137;28;20029;-80
2021/08/13 04:03:08;;;;;;;13.07;6.22;;;21.60;93.20;;;;;;5013002;28;20025;-80
2021/08/13 04:05:34;;;;;;;12.10;6.47;;;21.60;93.20;;;;;;5013365;28;20021;-80
2021/08/13 04:08:00;;;;;;;11.23;6.28;;;21.60;93.10;;;;;;5014114;28;20360;-81
2021/08/13 04:10:25;;;;;;;9.45;6.05;;;21.50;93.20;;;;;;5013195;28;20079;-81
2021/08/13 04:12:51;;;;;;;11.68;6.35;;;21.40;93.30;;;;;;5014188;28;20447;-79
2021/08/13 04:15:17;;;;;;;13.20;6.32;;;21.40;93.40;;;;;;5012674;28;20029;-79
2021/08/13 04:17:42;;;;;;;11.18;6.50;;;21.30;93.40;;;;;;5013037;28;20018;-79
2021/08/13 04:20:08;;;;;;;10.35;6.15;;;21.20;93.50;;;;;;5013689;28;20032;-79
2021/08/13 04:22:34;;;;;;;10.57;6.53;;;21.20;93.50;;;;;;5013868;28;20028;-79
2021/08/13 04:25:00;;;;;;;13.73;6.65;;;21.20;93.60;;;;;;5012259;28;20116;-81
2021/08/13 04:27:25;;;;;;;10.27;6.05;;;21.20;93.60;;;;;;5013027;28;20106;-80
2021/08/13 04:29:51;;;;;;;11.23;6.10;;;21.00;93.70;;;;;;5012754;28;20026;-79
2021/08/13 04:32:17;;;;;;;13.25;6.60;;;21.00;93.70;;;;;;5013250;28;20056;-79
2021/08/13 04:34:43;;;;;;;12.07;6.13;;;20.90;93.70;;;;;;5012690;28;20018;-79
2021/08/13 04:37:08;;;;;;;10.68;6.45;;;20.90;93.80;;;;;;5012084;28;20120;-80
2021/08/13 04:39:34;;;;;;;10.82;6.38;;;20.90;93.90;;;;;;5012916;28;20080;-80
2021/08/13 04:42:00;;;;;;;11.05;6.50;;;21.00;93.90;;;;;;5013216;28;20510;-80
2021/08/13 04:44:26;;;;;;;14.35;7.00;;;21.00;93.80;;;;;;5012679;28;20474;-80
2021/08/13 04:46:51;;;;;;;12.00;6.60;;;20.90;94.00;;;;;;5012604;28;20371;-80
2021/08/13 04:49:17;;;;;;;14.68;6.97;;;20.90;94.10;;;;;;5011970;28;20056;-80
2021/08/13 04:51:43;;;;;;;8.63;6.25;;;20.80;94.20;;;;;;5012654;28;20030;-78
2021/08/13 04:54:10;;;;;;;12.70;6.95;;;20.80;94.30;;;;;;5012101;28;20024;-80
2021/08/13 04:56:36;;;;;;;11.57;7.03;;;20.90;94.20;;;;;;5013834;28;20026;-80
2021/08/13 04:59:02;;;;;;;11.18;6.65;;;20.80;94.30;;;;;;5015675;28;20026;-80
2021/08/13 05:01:27;;;;;;;10.82;6.85;;;20.80;94.40;;;;;;5016924;28;20528;-80
2021/08/13 05:03:53;;;;;;;12.77;7.05;;;20.80;94.50;;;;;;5016369;28;20025;-80
2021/08/13 05:06:19;;;;;;;12.80;6.60;;;20.80;94.60;;;;;;5015870;28;20022;-80
2021/08/13 05:08:44;;;;;;;14.48;6.88;;;20.70;94.70;;;;;;5016613;28;20025;-79
2021/08/13 05:11:10;;;;;;;10.95;7.22;;;20.70;94.80;;;;;;5016005;28;20061;-80
2021/08/13 05:13:36;;;;;;;11.25;7.28;;;20.70;94.80;;;;;;5016446;28;20455;-79
2021/08/13 05:16:01;;;;;;;9.93;6.53;;;20.80;94.90;;;;;;5015940;28;20100;-81
2021/08/13 05:18:27;;;;;;;9.30;6.53;;;20.80;94.90;;;;;;5017585;28;20100;-80
2021/08/13 05:20:53;;;;;;;12.32;7.40;;;20.80;95.00;;;;;;5016235;28;20030;-80
2021/08/13 05:23:18;;;;;;;11.23;7.07;;;20.80;94.90;;;;;;5015912;28;20029;-80
2021/08/13 05:25:44;;;;;;;13.30;7.35;;;20.80;95.00;;;;;;5015849;28;20022;-80
2021/08/13 05:28:09;;;;;;;13.98;6.70;;;20.80;95.00;;;;;;5015640;28;20034;-80
2021/08/13 05:30:35;;;;;;;11.63;7.53;;;20.90;95.10;;;;;;5016975;28;20080;-80
2021/08/13 05:33:01;;;;;;;11.63;7.47;;;20.80;95.30;;;;;;5015695;28;20167;-80
2021/08/13 05:35:27;;;;;;;13.65;7.57;;;20.90;95.30;;;;;;5016193;28;20037;-80
2021/08/13 05:37:53;;;;;;;13.40;7.32;;;20.90;95.40;;;;;;5016598;28;20053;-80
2021/08/13 05:40:19;;;;;;;11.32;7.22;;;20.90;95.30;;;;;;5016560;28;20459;-80
2021/08/13 05:42:44;;;;;;;15.07;7.60;;;21.00;95.20;;;;;;5015618;28;20032;-79
2021/08/13 05:45:10;;;;;;;12.32;8.13;;;21.00;95.30;;;;;;5015022;28;20061;-79
2021/08/13 05:47:38;;;;;;;12.88;7.65;;;21.00;95.30;;;;;;5015699;28;20068;-79
2021/08/13 05:50:05;;;;;;;14.45;7.28;;;21.00;95.40;;;;;;5014360;28;20076;-79
2021/08/13 05:52:31;;;;;;;12.77;7.05;;;21.00;95.10;;;;;;5015400;28;20076;-79
2021/08/13 05:54:56;;;;;;;11.43;7.45;;;21.10;94.90;;;;;;5015253;28;20018;-80
2021/08/13 05:57:22;;;;;;;10.38;7.20;;;21.20;94.80;;;;;;5014715;28;20030;-80
2021/08/13 05:59:47;;;;;;;12.20;6.60;;;21.20;95.00;;;;;;5016557;28;20025;-79
2021/08/13 06:02:17;;;;;;;12.18;7.70;;;21.20;95.10;;;;;;5015889;28;20025;-79
2021/08/13 06:04:43;;;;;;;12.32;7.43;;;21.30;95.10;;;;;;5015534;28;20075;-79
2021/08/13 06:07:09;;;;;;;10.45;7.22;;;21.30;95.00;;;;;;5015809;28;20108;-79
2021/08/13 06:09:34;;;;;;;12.18;7.35;;;21.30;94.80;;;;;;5014214;28;20474;-79
2021/08/13 06:12:00;;;;;;;11.45;7.60;;;21.40;94.60;;;;;;5014626;28;20037;-82
2021/08/13 06:14:26;;;;;;;12.20;6.95;;;21.40;94.70;;;;;;5015401;28;20048;-80
2021/08/13 06:16:51;;;;;;;13.63;7.65;;;21.40;94.90;;;;;;5015395;28;20029;-80
2021/08/13 06:19:17;;;;;;;13.27;7.22;;;21.40;95.20;;;;;;5014884;28;20510;-80
2021/08/13 06:21:43;;;;;;;12.27;7.70;;;21.40;95.00;;;;;;5015096;28;20030;-79
2021/08/13 06:24:08;;;;;;;12.23;7.50;;;21.40;94.90;;;;;;5014332;28;20112;-79
2021/08/13 06:26:34;;;;;;;10.80;7.40;;;21.40;95.20;;;;;;5014818;28;20053;-79
2021/08/13 06:29:00;;;;;;;11.18;7.45;;;21.40;95.20;;;;;;5014999;28;20119;-80
2021/08/13 06:31:26;;;;;;;14.00;7.32;;;21.50;95.30;;;;;;5015977;28;20025;-81
2021/08/13 06:33:51;;;;;;;16.83;7.93;;;21.50;95.20;;;;;;5015014;28;20029;-80
2021/08/13 06:36:18;;;;;;;12.55;8.13;;;21.50;95.30;;;;;;5014651;28;20422;-79
2021/08/13 06:38:44;;;;;;;12.70;7.78;;;21.50;94.90;;;;;;5014277;28;20132;-79
2021/08/13 06:41:09;;;;;;;11.93;7.20;;;21.60;94.70;;;;;;5014133;28;20094;-80
2021/08/13 06:43:35;;;;;;;13.95;7.35;;;21.60;94.80;;;;;;5014510;28;20026;-80
2021/08/13 06:46:01;;;;;;;14.32;7.68;;;21.60;95.10;;;;;;5014822;28;20030;-80
2021/08/13 06:48:27;;;;;;;12.82;7.45;;;21.60;95.20;;;;;;5014800;28;20022;-80
2021/08/13 06:50:52;;;;;;;14.18;8.02;;;21.70;95.10;;;;;;5014622;28;20029;-80
2021/08/13 06:53:18;;;;;;;15.13;7.60;;;21.70;94.90;;;;;;5013917;28;20175;-80
2021/08/13 06:55:43;;;;;;;12.23;7.75;;;21.80;94.90;;;;;;5015705;28;20546;-80
2021/08/13 06:58:09;;;;;;;14.63;7.13;;;21.80;95.10;;;;;;5014706;28;20478;-80
2021/08/13 07:00:35;;;;;;;14.20;8.18;;;21.80;95.10;;;;;;5015459;28;20439;-80
2021/08/13 07:03:01;;;;;;;12.02;7.72;;;21.90;95.10;;;;;;5014234;28;20026;-80
2021/08/13 07:05:26;;;;;;;11.73;7.20;;;21.90;95.00;;;;;;5013603;28;20018;-79
2021/08/13 07:07:52;;;;;;;13.60;7.40;;;22.00;94.20;;;;;;5013900;28;20029;-79
2021/08/13 07:10:24;;;;;;;13.40;6.47;;;22.10;93.80;;;;;;5013393;28;20379;-80
2021/08/13 07:12:50;;;;;;;14.43;7.20;;;22.10;93.30;;;;;;5013768;28;20191;-80
2021/08/13 07:15:19;;;;;;;17.10;9.02;;;22.20;93.20;;;;;;5013142;28;20522;-80
2021/08/13 07:17:44;;;;;;;13.77;7.90;;;22.30;93.20;;;;;;5013676;28;20022;-79
2021/08/13 07:20:10;;;;;;;10.82;7.32;;;22.30;93.70;;;;;;5012950;28;20029;-80
2021/08/13 07:22:36;;;;;;;13.07;7.93;;;22.30;93.40;;;;;;5013747;28;20022;-79
2021/08/13 07:25:03;;;;;;;12.48;7.43;;;22.40;93.20;;;;;;5013437;28;20033;-79
2021/08/13 07:27:29;;;;;;;11.52;6.75;;;22.50;93.00;;;;;;5013989;28;20022;-80
2021/08/13 07:29:55;;;;;;;10.25;6.53;;;22.50;93.20;;;;;;5014906;28;20344;-80
2021/08/13 07:32:21;;;;;;;14.88;7.68;;;22.60;93.00;;;;;;5013099;28;20092;-80
2021/08/13 07:34:47;;;;;;;9.40;6.72;;;22.70;92.60;;;;;;5013271;28;20025;-79
2021/08/13 07:37:12;;;;;;;10.70;6.97;;;22.80;92.20;;;;;;5012278;28;20042;-80
2021/08/13 07:39:38;;;;;;;12.40;7.22;;;22.80;91.80;;;;;;5013133;28;20068;-80
2021/08/13 07:42:04;;;;;;;12.48;7.50;;;22.90;91.70;;;;;;5013459;28;20030;-80
2021/08/13 07:44:30;;;;;;;11.52;7.57;;;23.00;91.60;;;;;;5013337;28;20097;-80
2021/08/13 07:46:56;;;;;;;12.32;6.57;;;23.00;91.30;;;;;;5014454;28;20048;-80
2021/08/13 07:49:21;;;;;;;9.85;6.38;;;23.10;91.20;;;;;;5012755;28;20030;-80
2021/08/13 07:51:47;;;;;;;11.82;6.32;;;23.10;90.60;;;;;;5013166;28;20034;-80
2021/08/13 07:54:13;;;;;;;11.38;6.50;;;23.10;90.50;;;;;;5012514;28;20447;-80
2021/08/13 07:56:38;;;;;;;10.90;6.28;;;23.20;90.00;;;;;;5013442;28;20029;-80
2021/08/13 07:59:04;;;;;;;11.52;6.40;;;23.20;89.60;;;;;;5013165;28;20028;-79
2021/08/13 08:01:30;;;;;;;9.27;5.75;;;23.20;90.20;;;;;;5013627;28;20025;-81
2021/08/13 08:03:55;;;;;;;10.98;5.90;;;23.30;89.90;;;;;;5013646;28;20021;-80
2021/08/13 08:06:21;;;;;;;8.77;5.78;;;23.40;89.30;;;;;;5012670;28;20057;-81
2021/08/13 08:08:46;;;;;;;10.10;5.70;;;23.50;88.50;;;;;;5013424;28;20026;-81
2021/08/13 08:11:12;;;;;;;9.48;5.60;;;23.50;88.80;;;;;;5012632;28;20037;-81
2021/08/13 08:13:38;;;;;;;10.27;4.88;;;23.50;88.90;;;;;;5013527;28;20049;-81
2021/08/13 08:16:04;;;;;;;7.65;4.97;;;23.60;88.50;;;;;;5012626;28;20061;-80
2021/08/13 08:18:32;;;;;;;8.15;5.43;;;23.70;87.10;;;;;;5012423;28;20112;-81
2021/08/13 08:20:58;;;;;;;10.75;5.25;;;23.80;86.70;;;;;;5012763;28;20034;-81
2021/08/13 08:23:24;;;;;;;9.00;4.78;;;23.80;87.80;;;;;;5012364;28;20021;-80
2021/08/13 08:25:50;;;;;;;9.07;4.70;;;23.80;86.60;;;;;;5013470;28;20391;-79
2021/08/13 08:28:15;;;;;;;10.57;5.07;;;23.80;86.50;;;;;;5013323;28;20459;-79
2021/08/13 08:30:41;;;;;;;7.85;4.28;;;23.90;85.60;;;;;;5012587;28;20034;-80
2021/08/13 08:33:07;;;;;;;6.80;4.13;;;23.90;85.10;;;;;;5011754;28;20116;-80
2021/08/13 08:35:32;;;;;;;8.70;4.50;;;24.00;84.80;;;;;;5013477;28;20021;-80
2021/08/13 08:38:02;;;;;;;6.80;4.38;;;24.00;84.60;;;;;;5012062;28;20041;-79
2021/08/13 08:40:35;;;;;;;10.82;4.38;;;24.10;85.50;;;;;;5009044;28;20030;-80
2021/08/13 08:43:07;;;;;;;10.95;4.53;;;24.10;85.20;;;;;;5012032;28;20022;-80
2021/08/13 08:45:37;;;;;;;11.25;4.50;;;24.10;84.70;;;;;;5007263;28;20020;-80
2021/08/13 08:48:08;;;;;;;9.43;4.55;;;24.20;84.40;;;;;;5011767;28;20049;-81
2021/08/13 08:50:36;;;;;;;7.25;4.50;;;24.30;84.30;;;;;;5010735;28;20022;-80
2021/08/13 08:53:23;;;;;;;7.80;4.65;;;24.30;84.00;;;;;;5012924;28;20456;-81
2021/08/13 08:55:50;;;;;;;8.43;4.90;;;24.40;84.50;;;;;;5012280;28;20034;-80
2021/08/13 08:58:18;;;;;;;7.70;4.10;;;24.50;84.00;;;;;;5011256;28;20037;-80
2021/08/13 09:00:44;;;;;;;7.55;4.35;;;24.50;83.60;;;;;;5013069;28;20022;-81
2021/08/13 09:03:12;;;;;;;9.30;4.20;;;24.60;84.40;;;;;;5025237;28;20021;-81
2021/08/13 09:05:38;;;;;;;8.25;4.15;;;24.70;83.30;;;;;;5012941;28;20486;-80
2021/08/13 09:08:04;;;;;;;9.43;5.10;;;24.70;83.20;;;;;;5011547;28;20063;-80
2021/08/13 09:10:30;;;;;;;8.75;4.55;;;24.80;83.50;;;;;;5012389;28;20065;-82
2021/08/13 09:13:01;;;;;;;7.93;4.45;;;24.80;82.90;;;;;;5011843;28;20022;-80
2021/08/13 09:15:30;;;;;;;10.00;4.78;;;24.80;83.50;;;;;;5008405;28;20018;-80
2021/08/13 09:18:20;;;;;;;5.30;4.00;;;24.90;83.20;;;;;;5012990;28;20068;-81
2021/08/13 09:20:49;;;;;;;10.98;4.85;;;24.90;83.00;;;;;;5026496;28;20386;-80
2021/08/13 09:23:42;;;;;;;7.70;4.35;;;24.90;83.30;;;;;;5011034;28;20018;-80
2021/08/13 09:26:14;;;;;;;7.75;4.60;;;24.90;83.10;;;;;;5009506;28;20038;-81
2021/08/13 09:28:46;;;;;;;8.00;4.25;;;24.90;83.30;;;;;;5013347;28;20033;-81
2021/08/13 09:31:14;;;;;;;9.55;4.43;;;24.90;83.90;;;;;;5011237;28;20046;-81
2021/08/13 09:33:40;;;;;;;9.23;4.90;;;25.00;83.60;;;;;;5012200;28;20022;-81
2021/08/13 09:36:07;;;;;;;11.93;5.03;;;25.10;83.70;;;;;;5011354;28;20022;-83
2021/08/13 09:38:33;;;;;;;8.05;4.38;;;25.10;83.40;;;;;;5009529;28;20046;-81
2021/08/13 09:41:25;;;;;;;10.43;4.90;;;25.10;84.10;;;;;;5012475;28;20033;-79
2021/08/13 09:43:59;;;;;;;8.38;4.43;;;25.20;84.30;;;;;;5012240;28;20045;-81
2021/08/13 09:46:26;;;;;;;10.38;5.00;;;25.20;84.10;;;;;;5016066;28;20029;-80
2021/08/13 09:48:52;;;;;;;8.30;4.93;;;25.30;83.50;;;;;;5014872;28;20030;-81
2021/08/13 09:51:32;;;;;;;8.27;4.65;;;25.20;83.80;;;;;;5015428;28;20034;-81
2021/08/13 09:53:59;;;;;;;7.85;4.88;;;25.30;83.30;;;;;;5015728;28;20437;-80
2021/08/13 09:56:33;;;;;;;5.82;4.20;;;25.40;83.40;;;;;;5014397;28;20458;-78
2021/08/13 09:59:28;;;;;;;7.00;4.80;;;25.40;83.90;;;;;;5014966;28;20493;-78
2021/08/13 10:01:54;;;;;;;8.18;4.70;;;25.50;83.40;;;;;;5010306;28;20032;-78
2021/08/13 10:04:32;;;;;;;7.70;4.43;;;25.60;82.70;;;;;;5007407;28;20375;-78
2021/08/13 10:06:58;;;;;;;7.05;4.45;;;25.60;81.20;;;;;;5013515;28;20084;-77
2021/08/13 10:09:29;;;;;;;8.32;4.40;;;25.60;81.20;;;;;;5010733;28;20430;-81
2021/08/13 10:12:05;;;;;;;9.10;4.33;;;25.60;81.80;;;;;;5013348;28;20025;-82
2021/08/13 10:14:32;;;;;;;6.90;4.35;;;25.70;81.40;;;;;;5014003;28;20018;-80
2021/08/13 10:17:17;;;;;;;6.68;4.43;;;25.70;80.50;;;;;;5006199;28;20018;-79
2021/08/13 10:19:50;;;;;;;6.78;4.55;;;25.70;80.50;;;;;;5009798;28;20033;-79
2021/08/13 10:22:18;;;;;;;8.30;4.25;;;25.70;80.10;;;;;;5012208;28;20041;-79
2021/08/13 10:24:45;;;;;;;8.32;4.32;;;25.80;80.50;;;;;;5013973;28;20479;-80
2021/08/13 10:27:16;;;;;;;7.88;4.53;;;25.90;80.40;;;;;;5015254;28;20103;-79
2021/08/13 10:29:44;;;;;;;8.02;4.38;;;25.90;80.20;;;;;;5011667;28;20030;-80
2021/08/13 10:32:10;;;;;;;8.10;4.38;;;26.00;80.90;;;;;;5013795;28;20033;-78
2021/08/13 10:34:36;;;;;;;6.32;4.53;;;26.00;81.00;;;;;;5013352;28;20026;-78
2021/08/13 10:37:12;;;;;;;9.73;4.80;;;26.00;81.30;;;;;;5013639;28;20092;-80
2021/08/13 10:39:41;;;;;;;8.50;4.32;;;26.00;80.50;;;;;;5010608;28;20026;-81
2021/08/13 10:42:08;;;;;;;8.93;4.82;;;26.10;80.80;;;;;;5014108;28;20120;-80
2021/08/13 10:44:43;;;;;;;8.88;4.78;;;26.20;81.10;;;;;;5006107;28;20018;-81
2021/08/13 10:47:14;;;;;;;7.38;4.63;;;26.20;81.10;;;;;;5010304;28;20108;-80
2021/08/13 10:49:45;;;;;;;8.38;4.60;;;26.30;81.10;;;;;;5015030;28;20033;-80
2021/08/13 10:52:11;;;;;;;14.00;5.13;;;26.40;81.30;;;;;;5013542;28;20045;-77
2021/08/13 10:54:37;;;;;;;10.88;5.57;;;26.40;80.90;;;;;;5012411;28;20149;-81
2021/08/13 10:57:04;;;;;;;7.35;4.80;;;26.50;80.80;;;;;;5012023;28;20037;-78
2021/08/13 10:59:42;;;;;;;8.07;4.82;;;26.40;80.40;;;;;;5012516;28;20026;-76
2021/08/13 11:02:16;;;;;;;7.70;4.40;;;26.60;81.60;;;;;;5011359;28;20037;-78
2021/08/13 11:04:44;;;;;;;7.18;4.63;;;26.70;80.50;;;;;;5019058;28;20447;-79
2021/08/13 11:07:11;;;;;;;7.85;5.57;;;26.60;80.80;;;;;;5029804;28;20018;-77
2021/08/13 11:09:41;;;;;;;10.38;4.90;;;26.70;79.50;;;;;;5013685;28;20030;-79
2021/08/13 11:12:10;;;;;;;10.03;5.00;;;26.80;79.80;;;;;;5013020;28;20029;-78
2021/08/13 11:14:52;;;;;;;9.32;5.40;;;26.80;79.20;;;;;;5012672;28;20071;-78
2021/08/13 11:17:43;;;;;;;8.77;5.13;;;26.80;80.10;;;;;;5012789;28;20371;-76
2021/08/13 11:20:11;;;;;;;10.50;5.43;;;26.80;80.20;;;;;;4994582;28;20070;-78
2021/08/13 11:22:38;;;;;;;8.85;4.70;;;26.90;80.20;;;;;;5017298;28;20053;-80
2021/08/13 11:25:09;;;;;;;9.95;5.72;;;27.00;79.70;;;;;;5013228;28;20026;-81
2021/08/13 11:27:35;;;;;;;9.15;5.38;;;27.10;79.20;;;;;;5013159;28;20546;-81
2021/08/13 11:30:02;;;;;;;8.30;5.43;;;27.10;79.60;;;;;;5012800;28;20022;-80
2021/08/13 11:32:30;;;;;;;8.05;5.53;;;27.20;79.20;;;;;;5012350;28;20045;-82
2021/08/13 11:35:04;;;;;;;11.77;5.85;;;27.30;79.10;;;;;;5028194;28;20471;-81
2021/08/13 11:37:38;;;;;;;10.60;5.57;;;27.30;78.80;;;;;;5003164;28;20046;-81
2021/08/13 11:40:06;;;;;;;7.90;5.28;;;27.30;78.50;;;;;;4996983;28;20375;-81
2021/08/13 11:42:32;;;;;;;9.20;5.45;;;27.40;78.70;;;;;;5012286;28;20135;-79
2021/08/13 11:45:07;;;;;;;8.40;5.18;;;27.50;78.50;;;;;;5012693;28;20022;-80
2021/08/13 11:47:33;;;;;;;9.40;5.50;;;27.50;78.50;;;;;;5013853;28;20471;-79
2021/08/13 11:50:05;;;;;;;8.70;5.50;;;27.60;78.50;;;;;;5013372;28;20037;-79
2021/08/13 11:52:32;;;;;;;8.73;5.68;;;27.60;78.50;;;;;;5014040;28;20092;-79
2021/08/13 11:55:20;;;;;;;7.90;5.72;;;27.60;78.30;;;;;;5012987;28;20025;-81
2021/08/13 11:57:46;;;;;;;9.32;5.60;;;27.60;78.20;;;;;;5007826;28;20054;-82
2021/08/13 12:00:17;;;;;;;10.13;5.22;;;27.70;78.80;;;;;;4993492;28;20035;-80
2021/08/13 12:02:42;;;;;;;8.60;5.83;;;27.80;78.10;;;;;;4993155;28;20035;-82
2021/08/13 12:05:10;;;;;;;11.05;5.78;;;27.80;77.70;;;;;;5006040;28;20049;-81
2021/08/13 12:07:37;;;;;;;9.85;5.53;;;27.90;78.20;;;;;;5012072;28;20030;-87
2021/08/13 12:10:19;;;;;;;7.63;5.60;;;27.90;79.20;;;;;;5014167;28;20026;-82
2021/08/13 12:12:45;;;;;;;7.90;5.72;;;28.00;77.30;;;;;;5013677;28;20034;-82
2021/08/13 12:15:13;;;;;;;9.85;5.68;;;28.00;77.30;;;;;;5012667;28;20109;-82
2021/08/13 12:17:39;;;;;;;9.77;5.47;;;28.10;77.10;;;;;;5012184;28;20021;-81
2021/08/13 12:20:07;;;;;;;7.47;5.53;;;28.10;76.90;;;;;;5012711;28;20054;-79
2021/08/13 12:22:34;;;;;;;11.18;5.68;;;28.20;77.10;;;;;;5012347;28;20430;-80
2021/08/13 12:25:01;;;;;;;10.10;5.57;;;28.20;76.60;;;;;;5012414;28;20058;-79
2021/08/13 12:27:29;;;;;;;7.82;6.00;;;28.30;76.90;;;;;;5012398;28;20034;-80
2021/08/13 12:29:54;;;;;;;8.48;5.45;;;28.30;76.20;;;;;;5007201;28;20033;-81
2021/08/13 12:32:20;;;;;;;9.07;5.15;;;28.50;76.80;;;;;;5028443;28;20030;-81
2021/08/13 12:34:52;;;;;;;8.98;5.28;;;28.50;75.10;;;;;;5013388;28;20076;-81
2021/08/13 12:37:20;;;;;;;7.47;5.55;;;28.60;75.70;;;;;;5028600;28;20042;-82
2021/08/13 12:39:48;;;;;;;6.95;4.93;;;28.70;75.10;;;;;;5012146;28;20108;-81
2021/08/13 12:42:16;;;;;;;8.32;5.20;;;28.80;75.10;;;;;;5012550;28;20026;-80
2021/08/13 12:44:43;;;;;;;9.02;5.20;;;29.00;74.20;;;;;;5012035;28;20029;-82
2021/08/13 12:47:11;;;;;;;9.43;5.32;;;29.10;73.50;;;;;;5012218;28;20045;-81